Swan, Texas
Current Conditions -  °F | °C
As of 8:53 AM on Friday 24 Oct 2014 (Local Time) from KTYR Reporting Station
Broken Clouds Broken Clouds  
Wind Chill: 59°   Ceiling: 6500
Heat Index: 59°   Visibility: 10mi
Dew Point: 52°   Wind: 6mph
Humidity: 78%   Direction: 180°S
Pressure: 30.18"   Gusts: NA
Location:  32.394°N, 95.4356°W
Report Text: KTYR 241353Z 18005KT 10SM BKN065 15/11 A3018 RMK AO2 SLP215 T01500111
Loading
Personal Weather Stations






























Interactive Weather Map
Tropical Storm Tracking
New forecast layout! Learn more

10-Day Weather Forecast

Advertisements
Track Severe Weather on mobile